Time;durP1;ratioP1;P1;durP2;ratioP2;P2;SDS_P1;SDS_P2;PMS_P1;PMS_P2;Temp;Humidity;BMP_temperature;BMP_pressure;BME280_temperature;BME280_humidity;BME280_pressure;Samples;Min_cycle;Max_cycle;Signal;HPM_P1;HPM_P2
2020/12/02 00:00:13;;;;;;;5.35;2.70;;;2.70;99.90;;;;;;5036524;28;20493;-66
2020/12/02 00:02:44;;;;;;;;;;;2.50;99.90;;;;;;5023756;28;20072;-66
2020/12/02 00:05:12;;;;;;;6.55;3.10;;;3.20;99.90;;;;;;5036598;28;19916;-66
2020/12/02 00:07:40;;;;;;;7.25;3.55;;;3.10;99.90;;;;;;5036686;28;20433;-66
2020/12/02 00:10:07;;;;;;;7.28;4.05;;;3.70;99.90;;;;;;5035490;28;20053;-66
2020/12/02 00:12:33;;;;;;;4.10;3.10;;;3.80;99.90;;;;;;5032098;28;20596;-66
2020/12/02 00:14:59;;;;;;;;;;;3.30;99.90;;;;;;5037040;28;20473;-66
2020/12/02 00:17:24;;;;;;;3.75;3.17;;;3.60;99.90;;;;;;5036476;28;19905;-66
2020/12/02 00:19:51;;;;;;;;;;;3.20;99.90;;;;;;5036930;28;20087;-66
2020/12/02 00:22:20;;;;;;;4.68;3.20;;;3.40;99.90;;;;;;5036376;28;19916;-66
2020/12/02 00:24:47;;;;;;;4.45;3.10;;;3.30;99.90;;;;;;5036082;28;20057;-66
2020/12/02 00:27:27;;;;;;;4.88;3.28;;;3.10;99.90;;;;;;5036244;28;20378;-66
2020/12/02 00:29:54;;;;;;;5.90;3.38;;;3.10;99.90;;;;;;5036294;28;20546;-66
2020/12/02 00:32:35;;;;;;;5.93;3.08;;;3.40;99.90;;;;;;5036353;28;20105;-66
2020/12/02 00:35:02;;;;;;;7.57;3.88;;;3.40;99.90;;;;;;5035985;28;20052;-66
2020/12/02 00:37:29;;;;;;;6.85;3.75;;;4.40;99.90;;;;;;5029561;28;20018;-66
2020/12/02 00:39:56;;;;;;;12.55;4.60;;;3.60;99.90;;;;;;5035916;28;20501;-66
2020/12/02 00:42:22;;;;;;;9.50;3.70;;;3.70;99.90;;;;;;5037099;28;20573;-66
2020/12/02 00:44:49;;;;;;;7.10;4.85;;;4.40;99.90;;;;;;5040241;28;20018;-66
2020/12/02 00:47:24;;;;;;;8.23;3.47;;;3.70;99.90;;;;;;5040573;28;20036;-66
2020/12/02 00:49:52;;;;;;;11.25;3.83;;;3.70;99.90;;;;;;5035676;28;20033;-66
2020/12/02 00:52:19;;;;;;;7.15;4.40;;;3.50;99.90;;;;;;5040055;28;20481;-66
2020/12/02 00:54:45;;;;;;;8.85;4.32;;;3.80;99.90;;;;;;5038359;28;20026;-66
2020/12/02 00:57:21;;;;;;;9.32;4.40;;;3.80;99.90;;;;;;5040336;28;20111;-66
2020/12/02 00:59:54;;;;;;;5.38;2.88;;;3.70;99.90;;;;;;5039723;28;20018;-66
2020/12/02 01:02:45;;;;;;;6.50;2.92;;;3.70;99.90;;;;;;5039845;28;20036;-66
2020/12/02 01:05:16;;;;;;;3.72;2.90;;;3.50;99.90;;;;;;5028562;28;20040;-66
2020/12/02 01:07:43;;;;;;;11.02;3.35;;;3.30;99.90;;;;;;5039992;28;20021;-66
2020/12/02 01:10:11;;;;;;;5.18;2.80;;;3.70;99.90;;;;;;5039236;28;20137;-66
2020/12/02 01:12:38;;;;;;;6.10;3.55;;;3.80;99.90;;;;;;5039843;28;20018;-66
2020/12/02 01:15:08;;;;;;;5.70;3.58;;;3.70;99.90;;;;;;5039690;28;20156;-66
2020/12/02 01:17:34;;;;;;;7.70;3.90;;;3.50;99.90;;;;;;5039761;28;20022;-66
2020/12/02 01:20:00;;;;;;;;;;;3.50;99.90;;;;;;5040045;28;20072;-66
2020/12/02 01:22:32;;;;;;;7.05;3.35;;;3.70;99.90;;;;;;5039189;28;19976;-66
2020/12/02 01:25:07;;;;;;;9.40;3.55;;;3.70;99.90;;;;;;5039588;28;20026;-66
2020/12/02 01:27:52;;;;;;;6.18;3.03;;;3.70;99.90;;;;;;5039357;28;20087;-66
2020/12/02 01:30:19;;;;;;;8.68;3.17;;;3.60;99.90;;;;;;5039209;28;20442;-66
2020/12/02 01:32:45;;;;;;;10.27;2.83;;;3.70;99.90;;;;;;5039835;28;20397;-66
2020/12/02 01:35:19;;;;;;;5.75;3.38;;;3.80;99.90;;;;;;5039041;28;20539;-66
2020/12/02 01:37:46;;;;;;;6.72;3.08;;;3.60;99.90;;;;;;5039800;28;20428;-66
2020/12/02 01:40:18;;;;;;;10.23;3.58;;;3.50;99.90;;;;;;5038505;28;20400;-66
2020/12/02 01:42:47;;;;;;;9.30;3.90;;;3.60;99.90;;;;;;5039452;28;20072;-66
2020/12/02 01:45:24;;;;;;;8.88;3.70;;;3.40;99.90;;;;;;5039112;28;20025;-66
2020/12/02 01:47:55;;;;;;;7.13;2.90;;;3.50;99.90;;;;;;5039375;28;20025;-66
2020/12/02 01:50:38;;;;;;;4.60;2.75;;;3.70;99.90;;;;;;5038753;28;20041;-66
2020/12/02 01:53:13;;;;;;;4.88;3.10;;;3.90;99.90;;;;;;5038787;28;20083;-66
2020/12/02 01:55:46;;;;;;;6.45;3.42;;;3.70;99.90;;;;;;5038018;28;20497;-66
2020/12/02 01:58:23;;;;;;;7.32;3.53;;;3.80;99.90;;;;;;5038937;28;20022;-66
2020/12/02 02:00:58;;;;;;;8.35;3.08;;;3.30;99.90;;;;;;5038922;28;20157;-66
2020/12/02 02:03:25;;;;;;;9.80;3.13;;;3.80;99.90;;;;;;5026545;28;20033;-66
2020/12/02 02:05:59;;;;;;;4.45;3.63;;;3.70;99.90;;;;;;5038877;28;20079;-66
2020/12/02 02:08:33;;;;;;;6.57;3.35;;;3.60;99.90;;;;;;5038415;28;20511;-66
2020/12/02 02:11:04;;;;;;;5.07;2.83;;;3.50;99.90;;;;;;5034333;28;20033;-66
2020/12/02 02:13:48;;;;;;;6.45;3.13;;;4.10;99.90;;;;;;5037684;28;20026;-66
2020/12/02 02:16:23;;;;;;;7.47;3.10;;;3.50;99.90;;;;;;5038292;28;20025;-66
2020/12/02 02:18:49;;;;;;;5.78;2.95;;;4.00;99.90;;;;;;5038716;28;20394;-66
2020/12/02 02:21:20;;;;;;;4.15;2.72;;;3.80;99.90;;;;;;5036215;28;20028;-66
2020/12/02 02:23:46;;;;;;;2.65;2.45;;;3.60;99.90;;;;;;5038420;28;20109;-66
2020/12/02 02:26:12;;;;;;;;;;;3.80;99.90;;;;;;5038905;28;20485;-66
2020/12/02 02:29:02;;;;;;;4.75;2.65;;;3.50;99.90;;;;;;5038531;28;19909;-66
2020/12/02 02:31:33;;;;;;;3.80;3.08;;;3.80;99.90;;;;;;5038110;28;20091;-66
2020/12/02 02:33:59;;;;;;;6.22;2.75;;;3.70;99.90;;;;;;5037902;28;20040;-66
2020/12/02 02:36:28;;;;;;;9.73;2.88;;;3.40;99.90;;;;;;5038109;28;20101;-66
2020/12/02 02:38:55;;;;;;;3.15;2.47;;;3.70;99.90;;;;;;5037856;28;20036;-66
2020/12/02 02:41:23;;;;;;;4.75;2.50;;;3.70;99.90;;;;;;5038399;28;20566;-66
2020/12/02 02:43:49;;;;;;;5.13;3.00;;;3.50;99.90;;;;;;5038122;28;20021;-66
2020/12/02 02:46:14;;;;;;;;;;;3.40;99.90;;;;;;5038578;28;20497;-66
2020/12/02 02:48:40;;;;;;;7.90;3.13;;;3.60;99.90;;;;;;5038255;28;20403;-66
2020/12/02 02:51:06;;;;;;;;;;;3.80;99.90;;;;;;5038304;28;20037;-66
2020/12/02 02:53:32;;;;;;;6.43;2.97;;;3.60;99.90;;;;;;5037828;28;20411;-66
2020/12/02 02:55:58;;;;;;;4.63;2.78;;;3.70;99.90;;;;;;5037923;28;20393;-66
2020/12/02 02:58:25;;;;;;;;;;;3.50;99.90;;;;;;5038115;28;20022;-66
2020/12/02 03:00:57;;;;;;;5.50;2.90;;;4.70;99.90;;;;;;5037628;28;19909;-66
2020/12/02 03:03:23;;;;;;;3.95;2.67;;;3.70;99.90;;;;;;5037610;28;20022;-66
2020/12/02 03:05:49;;;;;;;;;;;3.60;99.90;;;;;;5037875;28;20075;-66
2020/12/02 03:08:16;;;;;;;4.97;3.20;;;3.40;99.90;;;;;;5037992;28;19913;-66
2020/12/02 03:10:45;;;;;;;3.17;2.35;;;3.30;99.90;;;;;;5036915;28;20506;-66
2020/12/02 03:13:45;;;;;;;4.72;2.65;;;3.70;99.90;;;;;;5037266;28;20056;-66
2020/12/02 03:16:21;;;;;;;4.03;2.70;;;3.90;99.90;;;;;;5036644;28;20048;-67
2020/12/02 03:18:48;;;;;;;14.23;3.22;;;3.10;99.90;;;;;;5037706;28;20053;-66
2020/12/02 03:21:18;;;;;;;8.57;2.70;;;3.50;99.90;;;;;;5037641;28;20038;-66
2020/12/02 03:23:44;;;;;;;2.67;2.47;;;3.50;99.90;;;;;;5037483;28;20497;-66
2020/12/02 03:26:11;;;;;;;;;;;3.70;99.90;;;;;;5037911;28;20037;-66
2020/12/02 03:28:37;;;;;;;3.35;2.88;;;3.80;99.90;;;;;;5036924;28;19912;-66
2020/12/02 03:31:09;;;;;;;5.55;4.10;;;3.50;99.90;;;;;;5036933;28;20036;-66
2020/12/02 03:33:34;;;;;;;5.75;3.20;;;4.10;99.90;;;;;;5037286;28;20026;-66
2020/12/02 03:36:00;;;;;;;;;;;3.70;99.90;;;;;;5037493;28;20021;-66
2020/12/02 03:38:26;;;;;;;6.53;3.00;;;3.70;99.90;;;;;;5037297;28;19909;-66
2020/12/02 03:40:52;;;;;;;;;;;3.70;99.90;;;;;;5036863;28;20029;-66
2020/12/02 03:43:19;;;;;;;3.90;2.67;;;3.90;99.90;;;;;;5036883;28;19909;-66
2020/12/02 03:45:45;;;;;;;4.82;3.00;;;3.70;99.90;;;;;;5037135;28;20056;-66
2020/12/02 03:48:14;;;;;;;7.90;3.50;;;3.80;99.90;;;;;;5037153;28;20489;-66
2020/12/02 03:50:41;;;;;;;7.60;3.58;;;4.10;99.90;;;;;;5036793;28;20052;-66
2020/12/02 03:53:08;;;;;;;9.68;3.78;;;3.90;99.90;;;;;;5036936;28;20037;-66
2020/12/02 03:55:35;;;;;;;4.60;2.60;;;3.70;99.90;;;;;;5036660;28;20022;-66
2020/12/02 03:58:01;;;;;;;4.20;3.05;;;3.80;99.90;;;;;;5036615;28;20508;-66
2020/12/02 04:00:27;;;;;;;5.30;3.15;;;3.60;99.90;;;;;;5036479;28;20030;-66
2020/12/02 04:02:53;;;;;;;;;;;3.70;99.90;;;;;;5023897;28;20110;-66
2020/12/02 04:05:19;;;;;;;4.15;3.17;;;3.70;99.90;;;;;;5036178;28;19912;-66
2020/12/02 04:07:45;;;;;;;5.22;2.83;;;3.70;99.90;;;;;;5036504;28;20053;-66
2020/12/02 04:10:12;;;;;;;2.60;2.40;;;3.80;99.90;;;;;;5035757;28;20050;-66
2020/12/02 04:12:38;;;;;;;6.15;2.67;;;3.20;99.90;;;;;;5035939;28;20064;-66
2020/12/02 04:15:04;;;;;;;;;;;3.60;99.90;;;;;;5036694;28;20394;-66
2020/12/02 04:17:30;;;;;;;4.28;2.22;;;4.20;99.90;;;;;;5036313;28;19950;-66
2020/12/02 04:19:56;;;;;;;5.47;3.25;;;3.70;99.90;;;;;;5035772;28;20029;-66
2020/12/02 04:22:22;;;;;;;;;;;3.80;99.90;;;;;;5036511;28;20029;-66
2020/12/02 04:24:48;;;;;;;4.95;2.90;;;3.80;99.90;;;;;;5036361;28;19909;-66
2020/12/02 04:27:15;;;;;;;;;;;3.70;99.90;;;;;;5036797;28;20028;-66
2020/12/02 04:29:41;;;;;;;;;;;3.70;99.90;;;;;;5037094;28;19927;-66
2020/12/02 04:32:07;;;;;;;3.50;2.30;;;3.60;99.90;;;;;;5036256;28;19948;-66
2020/12/02 04:34:33;;;;;;;2.72;2.53;;;3.90;99.90;;;;;;5036554;28;20038;-66
2020/12/02 04:36:59;;;;;;;5.82;3.17;;;3.90;99.90;;;;;;5036069;28;20147;-66
2020/12/02 04:39:24;;;;;;;;;;;3.80;99.90;;;;;;5036416;28;20077;-66
2020/12/02 04:41:52;;;;;;;7.78;2.85;;;3.80;99.90;;;;;;5036371;28;19992;-66
2020/12/02 04:44:18;;;;;;;6.40;2.92;;;4.10;99.90;;;;;;5036633;28;20057;-66
2020/12/02 04:46:45;;;;;;;9.40;4.03;;;3.40;99.90;;;;;;5036371;28;20116;-66
2020/12/02 04:49:18;;;;;;;4.30;2.50;;;3.90;99.90;;;;;;5036412;28;20040;-66
2020/12/02 04:51:44;;;;;;;7.57;3.30;;;3.90;99.90;;;;;;5035904;28;20033;-66
2020/12/02 04:54:10;;;;;;;;;;;3.90;99.90;;;;;;5036167;28;20100;-66
2020/12/02 04:56:42;;;;;;;4.53;2.53;;;3.90;99.90;;;;;;5035637;28;19912;-66
2020/12/02 04:59:08;;;;;;;8.27;2.80;;;4.00;99.90;;;;;;5036197;28;20544;-66
2020/12/02 05:01:54;;;;;;;4.05;2.60;;;3.80;99.90;;;;;;5030833;28;20030;-66
2020/12/02 05:04:25;;;;;;;5.28;2.58;;;4.20;99.90;;;;;;5031097;28;20486;-66
2020/12/02 05:07:05;;;;;;;5.28;3.08;;;3.70;99.90;;;;;;5033290;28;20493;-66
2020/12/02 05:09:35;;;;;;;3.03;2.20;;;3.80;99.90;;;;;;5035153;28;20136;-66
2020/12/02 05:12:13;;;;;;;5.35;2.88;;;3.70;99.90;;;;;;5035993;28;20060;-66
2020/12/02 05:14:44;;;;;;;3.35;2.60;;;3.80;99.90;;;;;;5035455;28;20034;-66
2020/12/02 05:17:19;;;;;;;3.35;2.72;;;4.10;99.90;;;;;;5035713;28;20053;-66
2020/12/02 05:20:05;;;;;;;4.15;2.92;;;4.20;99.90;;;;;;5036381;28;20434;-66
2020/12/02 05:22:35;;;;;;;4.50;2.73;;;3.50;99.90;;;;;;5036036;28;20032;-66
2020/12/02 05:25:01;;;;;;;3.90;2.70;;;4.10;99.90;;;;;;5035837;28;20280;-66
2020/12/02 05:27:31;;;;;;;;;;;3.90;99.90;;;;;;5036196;28;20497;-66
2020/12/02 05:30:25;;;;;;;5.30;3.15;;;4.00;99.90;;;;;;5038811;28;19938;-66
2020/12/02 05:33:05;;;;;;;6.80;3.58;;;4.00;99.90;;;;;;5039788;28;20033;-66
2020/12/02 05:35:33;;;;;;;5.60;3.35;;;3.90;99.90;;;;;;5039306;28;20025;-66
2020/12/02 05:38:00;;;;;;;4.85;3.03;;;4.00;99.90;;;;;;5039615;28;20415;-66
2020/12/02 05:40:28;;;;;;;5.80;2.58;;;3.80;99.90;;;;;;5039132;28;20037;-66
2020/12/02 05:42:59;;;;;;;3.08;2.78;;;3.90;99.90;;;;;;5039719;28;20033;-66
2020/12/02 05:45:35;;;;;;;5.95;3.50;;;3.80;99.90;;;;;;5038961;28;20017;-66
2020/12/02 05:48:05;;;;;;;7.38;2.72;;;3.80;99.90;;;;;;5039113;28;20417;-66
2020/12/02 05:50:30;;;;;;;6.25;3.45;;;3.70;99.90;;;;;;5038974;28;20034;-66
2020/12/02 05:53:03;;;;;;;;;;;3.80;99.90;;;;;;5039696;28;20051;-66
2020/12/02 05:55:31;;;;;;;5.97;3.22;;;3.40;99.90;;;;;;5027403;28;19947;-66
2020/12/02 05:58:17;;;;;;;5.00;3.63;;;3.80;99.90;;;;;;5038877;28;20022;-66
2020/12/02 06:00:43;;;;;;;5.82;2.80;;;3.90;99.90;;;;;;5039144;28;20088;-66
2020/12/02 06:03:14;;;;;;;7.85;3.17;;;3.20;99.90;;;;;;5025512;28;20039;-66
2020/12/02 06:05:40;;;;;;;3.97;2.83;;;3.60;99.90;;;;;;5038908;28;20445;-66
2020/12/02 06:08:07;;;;;;;;;;;3.70;99.90;;;;;;5039418;28;20033;-66
2020/12/02 06:10:37;;;;;;;5.53;2.90;;;3.80;99.90;;;;;;5038036;28;20008;-67
2020/12/02 06:13:04;;;;;;;3.28;2.90;;;3.40;99.90;;;;;;5038725;28;20057;-67
2020/12/02 06:15:35;;;;;;;6.22;3.67;;;3.40;99.90;;;;;;5036913;28;20275;-67
2020/12/02 06:18:26;;;;;;;4.40;2.92;;;3.40;99.90;;;;;;5036556;28;20030;-66
2020/12/02 06:20:52;;;;;;;5.35;2.70;;;3.00;99.90;;;;;;5038018;28;20035;-67
2020/12/02 06:23:18;;;;;;;;;;;3.20;99.90;;;;;;5038963;28;20029;-66
2020/12/02 06:25:51;;;;;;;10.30;3.60;;;3.10;99.90;;;;;;5038520;28;19912;-67
2020/12/02 06:28:25;;;;;;;5.72;3.35;;;3.00;99.90;;;;;;5038546;28;20021;-66
2020/12/02 06:31:17;;;;;;;6.65;3.22;;;2.80;99.90;;;;;;5037778;28;20519;-66
2020/12/02 06:33:45;;;;;;;6.35;3.20;;;3.00;99.90;;;;;;5038414;28;20021;-67
2020/12/02 06:36:27;;;;;;;5.10;3.47;;;3.10;99.90;;;;;;5038679;28;20029;-67
2020/12/02 06:39:05;;;;;;;5.85;3.30;;;2.90;99.90;;;;;;5038114;28;20021;-67
2020/12/02 06:41:40;;;;;;;5.20;3.35;;;2.80;99.90;;;;;;5036621;28;20493;-66
2020/12/02 06:44:12;;;;;;;3.92;2.75;;;3.00;99.90;;;;;;5038636;28;20068;-66
2020/12/02 06:46:55;;;;;;;4.15;2.85;;;2.80;99.90;;;;;;5038058;28;20025;-67
2020/12/02 06:49:31;;;;;;;3.90;2.97;;;3.20;99.90;;;;;;5038335;28;20029;-66
2020/12/02 06:52:02;;;;;;;4.28;3.17;;;3.00;99.90;;;;;;5038076;28;20022;-67
2020/12/02 06:54:30;;;;;;;7.65;3.35;;;3.00;99.90;;;;;;5037940;28;20021;-66
2020/12/02 06:57:19;;;;;;;4.43;4.03;;;3.20;99.90;;;;;;5038094;28;20040;-66
2020/12/02 06:59:56;;;;;;;8.43;3.67;;;2.80;99.90;;;;;;5038038;28;20032;-66
2020/12/02 07:02:43;;;;;;;5.07;3.63;;;3.30;99.90;;;;;;5026177;28;20026;-67
2020/12/02 07:05:34;;;;;;;3.88;3.25;;;2.80;99.90;;;;;;5026335;28;20128;-67
2020/12/02 07:08:18;;;;;;;5.82;3.10;;;3.50;99.90;;;;;;5037456;28;20075;-66
2020/12/02 07:11:11;;;;;;;3.28;2.88;;;3.20;99.90;;;;;;5030070;28;20109;-67
2020/12/02 07:13:41;;;;;;;4.10;2.90;;;3.10;99.90;;;;;;5038001;28;20032;-67
2020/12/02 07:16:19;;;;;;;3.55;3.13;;;2.90;99.90;;;;;;5037448;28;20028;-66
2020/12/02 07:19:04;;;;;;;7.28;3.15;;;2.60;99.90;;;;;;5037805;28;20099;-67
2020/12/02 07:21:36;;;;;;;5.63;3.60;;;3.00;99.90;;;;;;5026961;28;20068;-66
2020/12/02 07:24:04;;;;;;;6.13;3.40;;;2.60;99.90;;;;;;5037285;28;20083;-66
2020/12/02 07:26:31;;;;;;;6.95;3.80;;;2.90;99.90;;;;;;5037642;28;20493;-66
2020/12/02 07:29:03;;;;;;;3.95;3.50;;;2.80;99.90;;;;;;5037238;28;20515;-67
2020/12/02 07:31:30;;;;;;;6.03;3.53;;;2.80;99.90;;;;;;5037404;28;20477;-67
2020/12/02 07:34:19;;;;;;;4.55;3.75;;;2.90;99.90;;;;;;5037447;28;20492;-67
2020/12/02 07:36:46;;;;;;;5.78;3.67;;;3.10;99.90;;;;;;5037470;28;20045;-66
2020/12/02 07:39:11;;;;;;;;;;;3.00;99.90;;;;;;5037832;28;20029;-66
2020/12/02 07:41:57;;;;;;;5.72;3.13;;;3.30;99.90;;;;;;5037131;28;19912;-67
2020/12/02 07:44:25;;;;;;;8.85;3.30;;;3.00;99.90;;;;;;5037296;28;20030;-67
2020/12/02 07:46:54;;;;;;;7.90;4.22;;;2.50;99.90;;;;;;5036932;28;20033;-66
2020/12/02 07:49:21;;;;;;;5.53;4.78;;;3.50;99.90;;;;;;5037151;28;20036;-66
2020/12/02 07:51:53;;;;;;;8.25;4.32;;;3.10;99.90;;;;;;5036386;28;20021;-67
2020/12/02 07:54:26;;;;;;;8.90;4.28;;;3.10;99.90;;;;;;5036748;28;20024;-66
2020/12/02 07:56:54;;;;;;;9.02;4.32;;;3.20;99.90;;;;;;5037289;28;20028;-67
2020/12/02 07:59:25;;;;;;;12.52;5.05;;;3.30;99.90;;;;;;5037007;28;20013;-67
2020/12/02 08:01:59;;;;;;;6.38;4.85;;;3.80;99.90;;;;;;5029592;28;20036;-66
2020/12/02 08:04:37;;;;;;;14.45;6.38;;;3.90;99.90;;;;;;5032090;28;20047;-67
2020/12/02 08:07:14;;;;;;;5.70;4.57;;;4.00;99.90;;;;;;5036983;28;20026;-67
2020/12/02 08:09:41;;;;;;;4.07;3.28;;;4.00;99.90;;;;;;5036226;28;20103;-67
2020/12/02 08:12:33;;;;;;;6.75;4.20;;;4.20;99.90;;;;;;5036642;28;20045;-67
2020/12/02 08:15:06;;;;;;;5.95;4.15;;;4.30;99.90;;;;;;5025418;28;20087;-67
2020/12/02 08:17:33;;;;;;;6.70;4.55;;;4.50;99.90;;;;;;5036529;28;20438;-67
2020/12/02 08:20:00;;;;;;;6.40;4.93;;;4.60;99.90;;;;;;5036738;28;20029;-67
2020/12/02 08:22:40;;;;;;;9.90;5.30;;;4.80;99.90;;;;;;5036833;28;20108;-67
2020/12/02 08:25:32;;;;;;;5.80;3.70;;;4.80;99.90;;;;;;5036675;28;20091;-67
2020/12/02 08:28:01;;;;;;;4.57;3.15;;;4.80;99.90;;;;;;5025841;28;20022;-67
2020/12/02 08:30:30;;;;;;;5.40;3.35;;;4.90;99.90;;;;;;5036564;28;20029;-67
2020/12/02 08:33:09;;;;;;;9.07;3.63;;;4.90;99.90;;;;;;5036580;28;20029;-67
2020/12/02 08:35:49;;;;;;;7.80;3.75;;;5.00;99.90;;;;;;5036532;28;20009;-67
2020/12/02 08:38:32;;;;;;;6.60;4.30;;;5.40;99.90;;;;;;5036718;28;20021;-67
2020/12/02 08:41:01;;;;;;;8.38;4.15;;;5.20;99.90;;;;;;5036174;28;20485;-67
2020/12/02 08:43:35;;;;;;;9.10;4.10;;;5.40;99.90;;;;;;5036440;28;20091;-67
2020/12/02 08:46:08;;;;;;;7.95;3.72;;;5.20;99.90;;;;;;5036469;28;20022;-66
2020/12/02 08:48:39;;;;;;;9.90;4.55;;;5.60;99.90;;;;;;5036394;28;20408;-67
2020/12/02 08:51:11;;;;;;;5.20;3.17;;;5.70;99.90;;;;;;5036475;28;20091;-67
2020/12/02 08:53:38;;;;;;;5.15;3.53;;;5.70;99.90;;;;;;5036163;28;20034;-67
2020/12/02 08:56:04;;;;;;;7.72;4.38;;;5.80;99.90;;;;;;5036400;28;20021;-67
2020/12/02 08:58:30;;;;;;;12.98;4.63;;;6.80;99.90;;;;;;5036654;28;20037;-67
2020/12/02 09:00:56;;;;;;;;;;;5.70;99.90;;;;;;5036576;28;20022;-67
2020/12/02 09:03:24;;;;;;;8.23;3.95;;;4.50;99.90;;;;;;5023602;28;20265;-67
2020/12/02 09:05:51;;;;;;;6.75;3.90;;;6.20;99.90;;;;;;5040158;28;20064;-67
2020/12/02 09:08:17;;;;;;;10.02;4.38;;;6.30;99.90;;;;;;5040276;28;20026;-67
2020/12/02 09:10:44;;;;;;;12.05;5.65;;;6.30;99.90;;;;;;5039598;28;20493;-67
2020/12/02 09:13:10;;;;;;;8.23;4.32;;;6.60;99.90;;;;;;5040260;28;20032;-67
2020/12/02 09:15:36;;;;;;;;;;;6.20;99.90;;;;;;5040240;28;20029;-67
2020/12/02 09:18:02;;;;;;;3.90;3.35;;;6.70;99.90;;;;;;5040160;28;19905;-67
2020/12/02 09:20:27;;;;;;;;;;;6.60;99.90;;;;;;5040359;28;20085;-66
2020/12/02 09:22:53;;;;;;;7.72;4.03;;;6.80;99.90;;;;;;5040089;28;19928;-67
2020/12/02 09:25:19;;;;;;;;;;;7.00;99.90;;;;;;5040043;28;20029;-66
2020/12/02 09:27:45;;;;;;;6.28;3.55;;;7.10;99.90;;;;;;5040052;28;19905;-67
2020/12/02 09:30:11;;;;;;;;;;;7.30;99.90;;;;;;5040165;28;20057;-67
2020/12/02 09:32:37;;;;;;;13.23;4.05;;;7.40;99.90;;;;;;5039948;28;19905;-67
2020/12/02 09:35:07;;;;;;;6.78;3.33;;;7.70;99.90;;;;;;5039632;28;20055;-67
2020/12/02 09:37:33;;;;;;;11.50;4.53;;;7.60;99.90;;;;;;5039497;28;20032;-67
2020/12/02 09:40:00;;;;;;;11.38;5.68;;;7.80;99.90;;;;;;5039406;28;20030;-67
2020/12/02 09:42:26;;;;;;;11.63;5.10;;;8.00;99.90;;;;;;5039662;28;20025;-67
2020/12/02 09:45:00;;;;;;;;;;;8.20;99.90;;;;;;5039776;28;20469;-67
2020/12/02 09:47:26;;;;;;;12.43;3.92;;;8.40;99.90;;;;;;5039539;28;19905;-67
2020/12/02 09:49:52;;;;;;;;;;;8.40;99.90;;;;;;5039700;28;20044;-67
2020/12/02 09:52:43;;;;;;;16.10;4.60;;;8.60;99.90;;;;;;5039281;28;19996;-67
2020/12/02 09:55:21;;;;;;;14.45;3.90;;;8.40;99.90;;;;;;5038940;28;20021;-67
2020/12/02 09:57:48;;;;;;;9.75;4.63;;;8.70;99.90;;;;;;5039332;28;20101;-67
2020/12/02 10:00:16;;;;;;;7.55;4.53;;;8.50;99.90;;;;;;5039416;28;20025;-67
2020/12/02 10:03:14;;;;;;;8.77;3.70;;;8.60;99.90;;;;;;5026072;28;20032;-67
2020/12/02 10:06:17;;;;;;;8.80;3.13;;;8.30;99.90;;;;;;5039070;28;20021;-67
2020/12/02 10:08:49;;;;;;;13.90;4.28;;;8.40;99.90;;;;;;5038671;28;20017;-67
2020/12/02 10:11:30;;;;;;;10.30;3.22;;;8.40;99.90;;;;;;5038895;28;20089;-67
2020/12/02 10:14:20;;;;;;;7.47;2.58;;;8.40;99.90;;;;;;5038879;28;20073;-67
2020/12/02 10:17:20;;;;;;;5.80;2.25;;;8.40;99.90;;;;;;5038058;28;20037;-67
2020/12/02 10:20:23;;;;;;;14.05;3.05;;;8.60;99.90;;;;;;5027705;28;20026;-67
2020/12/02 10:23:07;;;;;;;5.28;3.00;;;8.50;99.90;;;;;;5038905;28;20029;-67
2020/12/02 10:25:44;;;;;;;10.02;3.75;;;8.60;99.90;;;;;;5038364;28;20025;-67
2020/12/02 10:28:13;;;;;;;11.07;2.95;;;8.60;99.90;;;;;;5038712;28;20029;-67
2020/12/02 10:31:03;;;;;;;7.40;2.78;;;8.80;99.90;;;;;;5038353;28;20406;-67
2020/12/02 10:33:41;;;;;;;6.40;3.72;;;9.10;99.90;;;;;;5038655;28;20032;-67
2020/12/02 10:36:06;;;;;;;6.38;3.50;;;9.00;99.90;;;;;;5038667;28;20078;-67
2020/12/02 10:38:42;;;;;;;;;;;9.20;99.90;;;;;;5038628;28;20100;-67
2020/12/02 10:41:19;;;;;;;7.38;3.42;;;9.10;99.90;;;;;;5038345;28;20384;-67
2020/12/02 10:44:12;;;;;;;9.35;3.08;;;9.00;99.90;;;;;;5038439;28;20021;-67
2020/12/02 10:46:37;;;;;;;8.57;3.15;;;9.10;99.90;;;;;;5038211;28;20055;-67
2020/12/02 10:49:09;;;;;;;;;;;8.90;99.90;;;;;;5038694;28;20029;-67
2020/12/02 10:51:38;;;;;;;9.20;3.10;;;9.10;99.90;;;;;;5038080;28;20364;-67
2020/12/02 10:54:14;;;;;;;10.75;3.20;;;9.20;99.90;;;;;;5038067;28;20022;-67
2020/12/02 10:56:42;;;;;;;10.40;3.50;;;9.10;99.90;;;;;;5038009;28;20018;-67
2020/12/02 10:59:13;;;;;;;13.70;3.90;;;9.10;99.90;;;;;;5037999;28;20511;-67
2020/12/02 11:01:41;;;;;;;12.10;3.50;;;9.10;99.90;;;;;;5031956;28;20500;-67
2020/12/02 11:04:12;;;;;;;11.45;3.83;;;9.10;99.90;;;;;;5030824;28;20484;-67
2020/12/02 11:06:58;;;;;;;12.57;3.95;;;8.90;99.90;;;;;;5038078;28;20026;-67
2020/12/02 11:09:41;;;;;;;10.63;4.40;;;9.10;99.90;;;;;;5037281;28;20045;-67
2020/12/02 11:12:39;;;;;;;13.65;4.10;;;8.90;99.90;;;;;;5037905;28;20429;-67
2020/12/02 11:15:27;;;;;;;11.85;3.65;;;8.90;99.90;;;;;;5027163;28;20559;-67
2020/12/02 11:18:06;;;;;;;11.15;3.92;;;9.00;99.90;;;;;;5037616;28;20017;-67
2020/12/02 11:20:48;;;;;;;12.65;3.90;;;8.70;99.90;;;;;;5037791;28;20504;-67
2020/12/02 11:23:40;;;;;;;13.13;4.78;;;8.60;99.90;;;;;;5038006;28;20079;-67
2020/12/02 11:26:15;;;;;;;12.75;4.95;;;8.50;99.90;;;;;;5037627;28;20066;-67
2020/12/02 11:28:44;;;;;;;6.15;3.70;;;8.50;99.90;;;;;;5037613;28;20021;-67
2020/12/02 11:31:42;;;;;;;14.90;3.65;;;8.50;99.90;;;;;;5037449;28;20032;-67
2020/12/02 11:34:36;;;;;;;7.63;3.33;;;8.40;99.90;;;;;;5037297;28;20052;-67
2020/12/02 11:37:47;;;;;;;10.00;3.40;;;8.50;99.90;;;;;;5037504;28;20041;-67
2020/12/02 11:40:22;;;;;;;7.03;2.88;;;8.40;99.90;;;;;;5037077;28;20013;-67
2020/12/02 11:42:55;;;;;;;7.55;2.90;;;8.40;99.90;;;;;;5037506;28;20022;-66
2020/12/02 11:45:28;;;;;;;7.10;3.03;;;8.50;99.90;;;;;;5037078;28;20111;-67
2020/12/02 11:48:11;;;;;;;6.35;3.70;;;8.60;99.90;;;;;;5037446;28;20022;-67
2020/12/02 11:50:58;;;;;;;4.55;2.90;;;8.60;99.90;;;;;;5037179;28;20608;-67
2020/12/02 11:53:43;;;;;;;8.80;3.63;;;8.70;99.90;;;;;;5036991;28;20025;-67
2020/12/02 11:56:29;;;;;;;5.88;3.28;;;9.20;99.90;;;;;;5036991;28;20021;-67
2020/12/02 11:59:11;;;;;;;9.57;4.72;;;8.80;99.90;;;;;;5037042;28;20084;-67
2020/12/02 12:01:55;;;;;;;7.85;3.20;;;8.60;99.90;;;;;;5031050;28;20037;-67
2020/12/02 12:04:34;;;;;;;6.65;2.72;;;8.70;99.90;;;;;;5031758;28;20040;-67
2020/12/02 12:07:23;;;;;;;17.95;3.30;;;8.70;99.90;;;;;;5037108;28;20029;-67
2020/12/02 12:10:26;;;;;;;10.23;3.22;;;8.80;99.90;;;;;;5036222;28;20417;-67
2020/12/02 12:13:22;;;;;;;10.73;3.33;;;8.80;99.90;;;;;;5034889;28;20576;-67
2020/12/02 12:15:58;;;;;;;4.43;2.58;;;8.90;99.90;;;;;;5036545;28;20030;-67
2020/12/02 12:19:06;;;;;;;8.82;2.85;;;8.90;99.90;;;;;;5036947;28;20100;-67
2020/12/02 12:21:31;;;;;;;6.88;2.63;;;9.00;99.90;;;;;;5025733;28;20030;-67
2020/12/02 12:24:12;;;;;;;;;;;9.00;99.90;;;;;;5037027;28;20026;-67
2020/12/02 12:26:46;;;;;;;6.90;2.50;;;9.10;99.90;;;;;;5036779;28;19911;-67
2020/12/02 12:29:12;;;;;;;8.60;3.13;;;9.50;99.90;;;;;;5036635;28;20758;-67
2020/12/02 12:31:47;;;;;;;9.80;3.05;;;9.50;99.90;;;;;;5036659;28;20072;-67
2020/12/02 12:34:20;;;;;;;7.60;3.15;;;9.50;99.90;;;;;;5023600;28;20026;-67
2020/12/02 12:36:48;;;;;;;9.20;4.13;;;9.70;99.90;;;;;;5036607;28;20018;-67
2020/12/02 12:39:46;;;;;;;8.15;3.00;;;9.90;99.90;;;;;;5038611;28;20052;-67
2020/12/02 12:42:13;;;;;;;15.02;3.45;;;10.10;99.90;;;;;;5040110;28;20029;-67
2020/12/02 12:44:41;;;;;;;7.10;3.17;;;10.20;99.90;;;;;;5040679;28;20025;-67
2020/12/02 12:47:27;;;;;;;7.85;3.55;;;10.20;99.90;;;;;;5040278;28;20401;-67
2020/12/02 12:49:55;;;;;;;7.60;2.90;;;9.90;99.90;;;;;;5040548;28;20091;-67
2020/12/02 12:52:33;;;;;;;12.27;3.78;;;9.80;99.90;;;;;;5040456;28;20044;-67
2020/12/02 12:54:59;;;;;;;6.15;3.00;;;9.70;99.90;;;;;;5040188;28;20493;-67
2020/12/02 12:57:28;;;;;;;9.77;3.50;;;9.90;99.90;;;;;;5040562;28;20117;-67
2020/12/02 12:59:56;;;;;;;6.40;3.30;;;9.70;99.90;;;;;;5040134;28;20026;-67
2020/12/02 13:02:25;;;;;;;5.97;3.38;;;9.50;99.90;;;;;;5028523;28;20061;-66
2020/12/02 13:04:52;;;;;;;19.77;7.20;;;9.40;99.90;;;;;;5038955;28;20499;-67
2020/12/02 13:07:19;;;;;;;12.68;5.72;;;9.40;99.90;;;;;;5040425;28;20481;-67
2020/12/02 13:10:19;;;;;;;8.63;3.85;;;9.40;99.90;;;;;;5039533;28;20048;-67
2020/12/02 13:13:14;;;;;;;6.32;3.25;;;9.50;99.90;;;;;;5040206;28;20040;-67
2020/12/02 13:15:53;;;;;;;8.95;3.60;;;9.40;99.90;;;;;;5040101;28;20033;-67
2020/12/02 13:18:56;;;;;;;12.95;7.35;;;9.40;99.90;;;;;;5040182;28;20033;-67
2020/12/02 13:21:54;;;;;;;12.60;6.70;;;9.30;99.90;;;;;;5028225;28;20032;-67
2020/12/02 13:24:19;;;;;;;;;;;9.40;99.90;;;;;;5040029;28;20071;-67
2020/12/02 13:26:49;;;;;;;9.05;5.00;;;9.20;99.90;;;;;;5040038;28;19905;-67
2020/12/02 13:29:37;;;;;;;16.23;7.97;;;9.30;99.90;;;;;;5039655;28;20104;-67
2020/12/02 13:32:09;;;;;;;39.20;17.42;;;9.40;99.90;;;;;;5039654;28;20108;-66
2020/12/02 13:34:35;;;;;;;21.55;10.60;;;9.40;99.90;;;;;;5039823;28;20101;-67
2020/12/02 13:37:01;;;;;;;;;;;9.50;99.90;;;;;;5040024;28;20064;-67